sensor_id;sensor_type;location;lat;lon;timestamp;temperature;humidity
54158;DHT22;40065;49.894;10.358;2022-08-03T00:03:29;20.70;73.80
54158;DHT22;40065;49.894;10.358;2022-08-03T00:08:31;20.50;74.60
54158;DHT22;40065;49.894;10.358;2022-08-03T00:13:38;20.20;75.80
54158;DHT22;40065;49.894;10.358;2022-08-03T00:18:40;20.10;76.60
54158;DHT22;40065;49.894;10.358;2022-08-03T00:23:42;20.10;76.80
54158;DHT22;40065;49.894;10.358;2022-08-03T00:28:53;20.10;76.80
54158;DHT22;40065;49.894;10.358;2022-08-03T00:33:54;20.10;76.70
54158;DHT22;40065;49.894;10.358;2022-08-03T00:39:00;19.90;76.50
54158;DHT22;40065;49.894;10.358;2022-08-03T00:44:02;20.00;76.50
54158;DHT22;40065;49.894;10.358;2022-08-03T00:49:04;20.00;76.50
54158;DHT22;40065;49.894;10.358;2022-08-03T00:54:06;19.70;77.40
54158;DHT22;40065;49.894;10.358;2022-08-03T00:59:09;19.80;77.40
54158;DHT22;40065;49.894;10.358;2022-08-03T01:04:11;19.70;78.20
54158;DHT22;40065;49.894;10.358;2022-08-03T01:09:26;19.60;78.60
54158;DHT22;40065;49.894;10.358;2022-08-03T01:14:38;19.60;79.30
54158;DHT22;40065;49.894;10.358;2022-08-03T01:20:05;19.50;79.50
54158;DHT22;40065;49.894;10.358;2022-08-03T01:30:35;19.00;81.80
54158;DHT22;40065;49.894;10.358;2022-08-03T01:35:53;18.70;81.80
54158;DHT22;40065;49.894;10.358;2022-08-03T01:41:04;18.90;81.50
54158;DHT22;40065;49.894;10.358;2022-08-03T01:46:08;19.10;81.00
54158;DHT22;40065;49.894;10.358;2022-08-03T01:51:11;19.10;81.20
54158;DHT22;40065;49.894;10.358;2022-08-03T01:56:15;19.10;81.80
54158;DHT22;40065;49.894;10.358;2022-08-03T02:01:20;18.90;82.60
54158;DHT22;40065;49.894;10.358;2022-08-03T02:06:24;19.00;83.30
54158;DHT22;40065;49.894;10.358;2022-08-03T02:11:46;19.00;83.30
54158;DHT22;40065;49.894;10.358;2022-08-03T02:16:49;19.00;83.90
54158;DHT22;40065;49.894;10.358;2022-08-03T02:21:52;18.90;84.50
54158;DHT22;40065;49.894;10.358;2022-08-03T02:27:04;18.70;85.50
54158;DHT22;40065;49.894;10.358;2022-08-03T02:32:13;18.70;86.00
54158;DHT22;40065;49.894;10.358;2022-08-03T02:37:18;18.20;87.40
54158;DHT22;40065;49.894;10.358;2022-08-03T02:42:21;18.30;87.40
54158;DHT22;40065;49.894;10.358;2022-08-03T02:47:25;18.10;88.00
54158;DHT22;40065;49.894;10.358;2022-08-03T02:52:29;18.30;88.00
54158;DHT22;40065;49.894;10.358;2022-08-03T02:57:33;18.30;88.70
54158;DHT22;40065;49.894;10.358;2022-08-03T03:02:36;18.20;89.10
54158;DHT22;40065;49.894;10.358;2022-08-03T03:07:39;18.30;89.00
54158;DHT22;40065;49.894;10.358;2022-08-03T03:12:57;18.30;89.40
54158;DHT22;40065;49.894;10.358;2022-08-03T03:18:00;18.30;89.90
54158;DHT22;40065;49.894;10.358;2022-08-03T03:23:02;18.20;90.10
54158;DHT22;40065;49.894;10.358;2022-08-03T03:28:05;18.30;90.20
54158;DHT22;40065;49.894;10.358;2022-08-03T03:33:07;18.10;90.60
54158;DHT22;40065;49.894;10.358;2022-08-03T03:38:09;18.10;90.60
54158;DHT22;40065;49.894;10.358;2022-08-03T03:43:12;18.10;90.70
54158;DHT22;40065;49.894;10.358;2022-08-03T03:48:14;18.00;91.00
54158;DHT22;40065;49.894;10.358;2022-08-03T03:53:16;18.00;91.20
54158;DHT22;40065;49.894;10.358;2022-08-03T03:58:18;17.90;91.60
54158;DHT22;40065;49.894;10.358;2022-08-03T04:03:25;18.00;91.40
54158;DHT22;40065;49.894;10.358;2022-08-03T04:08:27;18.00;91.50
54158;DHT22;40065;49.894;10.358;2022-08-03T04:14:02;18.00;91.50
54158;DHT22;40065;49.894;10.358;2022-08-03T04:19:09;18.10;91.40
54158;DHT22;40065;49.894;10.358;2022-08-03T04:24:12;18.00;91.50
54158;DHT22;40065;49.894;10.358;2022-08-03T04:29:17;18.00;92.00
54158;DHT22;40065;49.894;10.358;2022-08-03T04:34:20;18.10;91.30
54158;DHT22;40065;49.894;10.358;2022-08-03T04:39:23;17.70;92.10
54158;DHT22;40065;49.894;10.358;2022-08-03T04:44:27;18.00;92.20
54158;DHT22;40065;49.894;10.358;2022-08-03T04:49:30;20.20;86.80
54158;DHT22;40065;49.894;10.358;2022-08-03T04:54:40;21.40;81.40
54158;DHT22;40065;49.894;10.358;2022-08-03T04:59:42;23.20;75.90
54158;DHT22;40065;49.894;10.358;2022-08-03T05:04:44;25.30;71.70
54158;DHT22;40065;49.894;10.358;2022-08-03T05:09:47;27.00;67.00
54158;DHT22;40065;49.894;10.358;2022-08-03T05:14:53;27.20;62.60
54158;DHT22;40065;49.894;10.358;2022-08-03T05:19:56;27.30;62.80
54158;DHT22;40065;49.894;10.358;2022-08-03T05:24:59;27.50;61.80
54158;DHT22;40065;49.894;10.358;2022-08-03T05:30:01;29.50;59.60
54158;DHT22;40065;49.894;10.358;2022-08-03T05:35:23;30.10;56.80
54158;DHT22;40065;49.894;10.358;2022-08-03T05:40:45;28.60;58.10
54158;DHT22;40065;49.894;10.358;2022-08-03T05:46:07;27.70;59.60
54158;DHT22;40065;49.894;10.358;2022-08-03T05:51:13;28.80;58.70
54158;DHT22;40065;49.894;10.358;2022-08-03T05:56:15;30.80;56.80
54158;DHT22;40065;49.894;10.358;2022-08-03T06:01:19;31.90;54.50
54158;DHT22;40065;49.894;10.358;2022-08-03T06:06:24;32.10;52.60
54158;DHT22;40065;49.894;10.358;2022-08-03T06:11:32;31.70;52.60
54158;DHT22;40065;49.894;10.358;2022-08-03T06:16:34;32.20;53.30
54158;DHT22;40065;49.894;10.358;2022-08-03T06:21:36;32.60;52.50
54158;DHT22;40065;49.894;10.358;2022-08-03T06:26:40;33.80;50.70
54158;DHT22;40065;49.894;10.358;2022-08-03T06:31:42;31.90;51.80
54158;DHT22;40065;49.894;10.358;2022-08-03T06:36:44;32.20;51.70
54158;DHT22;40065;49.894;10.358;2022-08-03T06:41:49;32.10;51.20
54158;DHT22;40065;49.894;10.358;2022-08-03T06:46:51;33.20;51.40
54158;DHT22;40065;49.894;10.358;2022-08-03T06:51:53;33.90;50.20
54158;DHT22;40065;49.894;10.358;2022-08-03T06:57:08;34.30;49.50
54158;DHT22;40065;49.894;10.358;2022-08-03T07:02:12;34.00;48.20
54158;DHT22;40065;49.894;10.358;2022-08-03T07:07:20;33.40;49.10
54158;DHT22;40065;49.894;10.358;2022-08-03T07:12:21;34.30;48.60
54158;DHT22;40065;49.894;10.358;2022-08-03T07:17:23;33.40;50.20
54158;DHT22;40065;49.894;10.358;2022-08-03T07:22:25;33.60;49.60
54158;DHT22;40065;49.894;10.358;2022-08-03T07:27:27;34.10;48.60
54158;DHT22;40065;49.894;10.358;2022-08-03T07:32:30;33.80;48.60
54158;DHT22;40065;49.894;10.358;2022-08-03T07:37:32;34.10;48.10
54158;DHT22;40065;49.894;10.358;2022-08-03T07:42:34;33.80;48.20
54158;DHT22;40065;49.894;10.358;2022-08-03T07:47:36;33.30;48.30
54158;DHT22;40065;49.894;10.358;2022-08-03T07:52:38;32.50;49.50
54158;DHT22;40065;49.894;10.358;2022-08-03T07:57:59;34.00;48.40
54158;DHT22;40065;49.894;10.358;2022-08-03T08:03:02;35.00;47.00
54158;DHT22;40065;49.894;10.358;2022-08-03T08:08:04;34.70;46.70
54158;DHT22;40065;49.894;10.358;2022-08-03T08:13:05;34.70;47.60
54158;DHT22;40065;49.894;10.358;2022-08-03T08:18:07;35.00;46.20
54158;DHT22;40065;49.894;10.358;2022-08-03T08:23:09;35.50;45.60
54158;DHT22;40065;49.894;10.358;2022-08-03T08:28:31;35.60;45.60
54158;DHT22;40065;49.894;10.358;2022-08-03T08:33:35;36.50;45.20
54158;DHT22;40065;49.894;10.358;2022-08-03T08:38:56;36.80;45.10
54158;DHT22;40065;49.894;10.358;2022-08-03T08:43:58;36.60;44.90
54158;DHT22;40065;49.894;10.358;2022-08-03T08:49:00;36.30;44.40
54158;DHT22;40065;49.894;10.358;2022-08-03T08:54:06;36.10;44.20
54158;DHT22;40065;49.894;10.358;2022-08-03T08:59:09;36.00;44.60
54158;DHT22;40065;49.894;10.358;2022-08-03T09:04:11;37.10;44.00
54158;DHT22;40065;49.894;10.358;2022-08-03T09:09:12;37.40;43.10
54158;DHT22;40065;49.894;10.358;2022-08-03T09:14:34;36.40;43.20
54158;DHT22;40065;49.894;10.358;2022-08-03T09:20:05;37.60;42.50
54158;DHT22;40065;49.894;10.358;2022-08-03T09:25:09;37.40;42.50
54158;DHT22;40065;49.894;10.358;2022-08-03T09:30:25;37.70;42.60
54158;DHT22;40065;49.894;10.358;2022-08-03T09:35:44;37.20;42.50
54158;DHT22;40065;49.894;10.358;2022-08-03T09:40:56;37.90;42.60
54158;DHT22;40065;49.894;10.358;2022-08-03T09:46:03;38.00;41.40
54158;DHT22;40065;49.894;10.358;2022-08-03T09:51:05;38.00;41.90
54158;DHT22;40065;49.894;10.358;2022-08-03T09:56:42;37.30;41.30
54158;DHT22;40065;49.894;10.358;2022-08-03T10:01:44;37.90;41.40
54158;DHT22;40065;49.894;10.358;2022-08-03T10:07:01;37.30;42.00
54158;DHT22;40065;49.894;10.358;2022-08-03T10:12:11;38.30;42.10
54158;DHT22;40065;49.894;10.358;2022-08-03T10:17:14;38.60;40.70
54158;DHT22;40065;49.894;10.358;2022-08-03T10:22:21;38.80;39.90
54158;DHT22;40065;49.894;10.358;2022-08-03T10:27:25;38.00;40.30
54158;DHT22;40065;49.894;10.358;2022-08-03T10:32:36;38.00;40.90
54158;DHT22;40065;49.894;10.358;2022-08-03T10:37:43;38.40;40.10
54158;DHT22;40065;49.894;10.358;2022-08-03T10:43:10;38.40;41.10
54158;DHT22;40065;49.894;10.358;2022-08-03T10:48:12;38.30;40.70
54158;DHT22;40065;49.894;10.358;2022-08-03T10:53:15;38.20;40.10
54158;DHT22;40065;49.894;10.358;2022-08-03T11:09:17;37.70;40.20
54158;DHT22;40065;49.894;10.358;2022-08-03T11:14:20;37.30;40.70
54158;DHT22;40065;49.894;10.358;2022-08-03T11:19:22;37.20;41.10
54158;DHT22;40065;49.894;10.358;2022-08-03T11:24:58;38.10;40.00
54158;DHT22;40065;49.894;10.358;2022-08-03T11:30:22;38.00;40.80
54158;DHT22;40065;49.894;10.358;2022-08-03T11:35:30;37.70;40.60
54158;DHT22;40065;49.894;10.358;2022-08-03T11:40:45;38.30;39.90
54158;DHT22;40065;49.894;10.358;2022-08-03T11:46:02;38.50;40.00
54158;DHT22;40065;49.894;10.358;2022-08-03T11:51:06;39.00;40.10
54158;DHT22;40065;49.894;10.358;2022-08-03T11:56:08;39.20;39.20
54158;DHT22;40065;49.894;10.358;2022-08-03T12:01:13;39.00;39.80
54158;DHT22;40065;49.894;10.358;2022-08-03T12:06:23;39.60;39.90
54158;DHT22;40065;49.894;10.358;2022-08-03T12:11:25;38.40;39.40
54158;DHT22;40065;49.894;10.358;2022-08-03T12:16:27;38.60;39.30
54158;DHT22;40065;49.894;10.358;2022-08-03T12:21:30;38.40;39.70
54158;DHT22;40065;49.894;10.358;2022-08-03T12:26:46;38.70;39.90
54158;DHT22;40065;49.894;10.358;2022-08-03T12:32:00;38.30;39.70
54158;DHT22;40065;49.894;10.358;2022-08-03T12:37:04;36.20;41.10
54158;DHT22;40065;49.894;10.358;2022-08-03T12:42:29;38.40;40.30
54158;DHT22;40065;49.894;10.358;2022-08-03T12:47:58;38.30;40.60
54158;DHT22;40065;49.894;10.358;2022-08-03T12:53:01;38.90;39.60
54158;DHT22;40065;49.894;10.358;2022-08-03T12:58:06;38.60;39.10
54158;DHT22;40065;49.894;10.358;2022-08-03T13:03:08;38.30;39.30
54158;DHT22;40065;49.894;10.358;2022-08-03T13:08:30;38.30;39.30
54158;DHT22;40065;49.894;10.358;2022-08-03T13:13:38;38.90;39.30
54158;DHT22;40065;49.894;10.358;2022-08-03T13:18:40;39.40;39.10
54158;DHT22;40065;49.894;10.358;2022-08-03T13:23:42;39.20;38.70
54158;DHT22;40065;49.894;10.358;2022-08-03T13:28:44;39.40;38.60
54158;DHT22;40065;49.894;10.358;2022-08-03T13:33:46;39.60;38.70
54158;DHT22;40065;49.894;10.358;2022-08-03T13:38:48;39.80;38.30
54158;DHT22;40065;49.894;10.358;2022-08-03T13:43:49;39.10;39.00
54158;DHT22;40065;49.894;10.358;2022-08-03T13:49:11;39.00;38.80
54158;DHT22;40065;49.894;10.358;2022-08-03T13:54:13;38.50;39.70
54158;DHT22;40065;49.894;10.358;2022-08-03T13:59:15;38.70;39.10
54158;DHT22;40065;49.894;10.358;2022-08-03T14:04:17;38.90;39.50
54158;DHT22;40065;49.894;10.358;2022-08-03T14:09:23;38.80;39.50
54158;DHT22;40065;49.894;10.358;2022-08-03T14:14:24;38.60;39.40
54158;DHT22;40065;49.894;10.358;2022-08-03T14:19:26;38.10;39.90
54158;DHT22;40065;49.894;10.358;2022-08-03T14:24:28;38.20;39.40
54158;DHT22;40065;49.894;10.358;2022-08-03T14:29:30;37.40;40.20
54158;DHT22;40065;49.894;10.358;2022-08-03T14:34:32;38.40;40.10
54158;DHT22;40065;49.894;10.358;2022-08-03T14:39:34;38.60;40.10
54158;DHT22;40065;49.894;10.358;2022-08-03T14:44:56;39.00;39.50
54158;DHT22;40065;49.894;10.358;2022-08-03T14:50:06;39.10;39.40
54158;DHT22;40065;49.894;10.358;2022-08-03T14:55:28;38.30;39.30
54158;DHT22;40065;49.894;10.358;2022-08-03T15:00:39;38.50;39.40
54158;DHT22;40065;49.894;10.358;2022-08-03T15:05:41;38.60;39.60
54158;DHT22;40065;49.894;10.358;2022-08-03T15:10:43;38.30;39.10
54158;DHT22;40065;49.894;10.358;2022-08-03T15:15:47;37.10;40.10
54158;DHT22;40065;49.894;10.358;2022-08-03T15:20:49;37.90;40.20
54158;DHT22;40065;49.894;10.358;2022-08-03T15:25:51;38.10;39.50
54158;DHT22;40065;49.894;10.358;2022-08-03T15:31:13;37.90;39.40
54158;DHT22;40065;49.894;10.358;2022-08-03T15:36:19;37.80;39.70
54158;DHT22;40065;49.894;10.358;2022-08-03T15:41:21;37.40;39.90
54158;DHT22;40065;49.894;10.358;2022-08-03T15:46:23;37.60;40.10
54158;DHT22;40065;49.894;10.358;2022-08-03T15:51:30;37.60;39.80
54158;DHT22;40065;49.894;10.358;2022-08-03T15:56:32;37.10;40.40
54158;DHT22;40065;49.894;10.358;2022-08-03T16:01:34;36.60;40.90
54158;DHT22;40065;49.894;10.358;2022-08-03T16:06:36;36.10;41.50
54158;DHT22;40065;49.894;10.358;2022-08-03T16:11:37;36.00;41.60
54158;DHT22;40065;49.894;10.358;2022-08-03T16:16:39;35.80;41.60
54158;DHT22;40065;49.894;10.358;2022-08-03T16:21:41;35.60;41.50
54158;DHT22;40065;49.894;10.358;2022-08-03T16:26:49;35.50;41.80
54158;DHT22;40065;49.894;10.358;2022-08-03T16:31:51;35.40;42.10
54158;DHT22;40065;49.894;10.358;2022-08-03T16:36:53;35.10;42.30
54158;DHT22;40065;49.894;10.358;2022-08-03T16:41:55;34.60;42.70
54158;DHT22;40065;49.894;10.358;2022-08-03T16:47:02;34.60;42.80
54158;DHT22;40065;49.894;10.358;2022-08-03T16:52:04;34.80;42.80
54158;DHT22;40065;49.894;10.358;2022-08-03T16:57:07;34.70;42.90
54158;DHT22;40065;49.894;10.358;2022-08-03T17:02:19;34.50;42.60
54158;DHT22;40065;49.894;10.358;2022-08-03T17:07:26;34.30;43.00
54158;DHT22;40065;49.894;10.358;2022-08-03T17:12:32;34.20;43.40
54158;DHT22;40065;49.894;10.358;2022-08-03T17:17:36;34.20;43.30
54158;DHT22;40065;49.894;10.358;2022-08-03T17:23:02;34.10;43.90
54158;DHT22;40065;49.894;10.358;2022-08-03T17:28:17;34.20;43.60
54158;DHT22;40065;49.894;10.358;2022-08-03T17:33:39;33.80;43.70
54158;DHT22;40065;49.894;10.358;2022-08-03T17:38:50;33.70;43.50
54158;DHT22;40065;49.894;10.358;2022-08-03T17:43:55;33.80;44.00
54158;DHT22;40065;49.894;10.358;2022-08-03T17:49:17;33.70;43.90
54158;DHT22;40065;49.894;10.358;2022-08-03T17:54:42;33.50;44.50
54158;DHT22;40065;49.894;10.358;2022-08-03T18:00:13;33.50;44.70
54158;DHT22;40065;49.894;10.358;2022-08-03T18:05:35;33.40;44.60
54158;DHT22;40065;49.894;10.358;2022-08-03T18:16:30;32.90;45.50
54158;DHT22;40065;49.894;10.358;2022-08-03T18:21:36;33.00;45.20
54158;DHT22;40065;49.894;10.358;2022-08-03T18:26:58;32.70;46.00
54158;DHT22;40065;49.894;10.358;2022-08-03T18:32:06;32.40;46.50
54158;DHT22;40065;49.894;10.358;2022-08-03T18:37:16;32.40;46.50
54158;DHT22;40065;49.894;10.358;2022-08-03T18:42:25;32.20;46.70
54158;DHT22;40065;49.894;10.358;2022-08-03T18:47:36;32.10;47.00
54158;DHT22;40065;49.894;10.358;2022-08-03T18:53:13;32.00;47.10
54158;DHT22;40065;49.894;10.358;2022-08-03T18:58:43;31.60;47.80
54158;DHT22;40065;49.894;10.358;2022-08-03T19:03:50;31.00;49.50
54158;DHT22;40065;49.894;10.358;2022-08-03T19:08:54;30.60;51.10
54158;DHT22;40065;49.894;10.358;2022-08-03T19:13:57;30.20;51.40
54158;DHT22;40065;49.894;10.358;2022-08-03T19:19:01;30.00;52.00
54158;DHT22;40065;49.894;10.358;2022-08-03T19:24:06;29.70;52.60
54158;DHT22;40065;49.894;10.358;2022-08-03T19:29:30;29.50;53.00
54158;DHT22;40065;49.894;10.358;2022-08-03T19:34:52;29.40;53.70
54158;DHT22;40065;49.894;10.358;2022-08-03T19:39:56;29.20;54.50
54158;DHT22;40065;49.894;10.358;2022-08-03T19:45:04;29.20;54.00
54158;DHT22;40065;49.894;10.358;2022-08-03T19:50:15;29.00;54.10
54158;DHT22;40065;49.894;10.358;2022-08-03T19:55:20;28.80;54.00
54158;DHT22;40065;49.894;10.358;2022-08-03T20:00:23;28.90;53.10
54158;DHT22;40065;49.894;10.358;2022-08-03T20:05:46;28.90;52.90
54158;DHT22;40065;49.894;10.358;2022-08-03T20:10:54;28.60;54.00
54158;DHT22;40065;49.894;10.358;2022-08-03T20:15:56;28.50;54.40
54158;DHT22;40065;49.894;10.358;2022-08-03T20:21:05;28.30;54.70
54158;DHT22;40065;49.894;10.358;2022-08-03T20:26:16;28.20;55.50
54158;DHT22;40065;49.894;10.358;2022-08-03T20:31:20;28.10;55.30
54158;DHT22;40065;49.894;10.358;2022-08-03T20:36:37;27.80;55.80
54158;DHT22;40065;49.894;10.358;2022-08-03T20:41:39;27.60;56.70
54158;DHT22;40065;49.894;10.358;2022-08-03T20:46:41;27.40;56.10
54158;DHT22;40065;49.894;10.358;2022-08-03T20:52:00;27.40;56.50
54158;DHT22;40065;49.894;10.358;2022-08-03T20:57:06;26.90;57.60
54158;DHT22;40065;49.894;10.358;2022-08-03T21:02:10;26.90;57.90
54158;DHT22;40065;49.894;10.358;2022-08-03T21:07:21;26.90;57.90
54158;DHT22;40065;49.894;10.358;2022-08-03T21:12:43;26.50;58.60
54158;DHT22;40065;49.894;10.358;2022-08-03T21:17:50;26.20;59.20
54158;DHT22;40065;49.894;10.358;2022-08-03T21:22:56;25.80;60.10
54158;DHT22;40065;49.894;10.358;2022-08-03T21:27:59;25.90;59.90
54158;DHT22;40065;49.894;10.358;2022-08-03T21:33:01;26.10;59.50
54158;DHT22;40065;49.894;10.358;2022-08-03T21:38:07;25.90;59.80
54158;DHT22;40065;49.894;10.358;2022-08-03T21:43:30;25.80;59.70
54158;DHT22;40065;49.894;10.358;2022-08-03T21:48:37;25.90;59.80
54158;DHT22;40065;49.894;10.358;2022-08-03T21:53:40;25.50;60.60
54158;DHT22;40065;49.894;10.358;2022-08-03T21:59:05;25.60;60.40
54158;DHT22;40065;49.894;10.358;2022-08-03T22:04:08;25.40;60.50
54158;DHT22;40065;49.894;10.358;2022-08-03T22:09:12;25.30;60.50
54158;DHT22;40065;49.894;10.358;2022-08-03T22:14:14;25.20;60.50
54158;DHT22;40065;49.894;10.358;2022-08-03T22:19:16;25.10;60.90
54158;DHT22;40065;49.894;10.358;2022-08-03T22:24:19;25.20;61.40
54158;DHT22;40065;49.894;10.358;2022-08-03T22:29:24;25.10;60.80
54158;DHT22;40065;49.894;10.358;2022-08-03T22:34:27;25.20;60.70
54158;DHT22;40065;49.894;10.358;2022-08-03T22:39:30;25.20;60.30
54158;DHT22;40065;49.894;10.358;2022-08-03T22:44:34;25.20;60.30
54158;DHT22;40065;49.894;10.358;2022-08-03T22:49:36;25.20;60.60
54158;DHT22;40065;49.894;10.358;2022-08-03T22:54:39;25.10;60.70
54158;DHT22;40065;49.894;10.358;2022-08-03T22:59:41;24.90;61.10
54158;DHT22;40065;49.894;10.358;2022-08-03T23:04:49;24.90;62.30
54158;DHT22;40065;49.894;10.358;2022-08-03T23:09:52;24.90;62.00
54158;DHT22;40065;49.894;10.358;2022-08-03T23:15:01;24.80;62.30
54158;DHT22;40065;49.894;10.358;2022-08-03T23:20:06;24.80;62.90
54158;DHT22;40065;49.894;10.358;2022-08-03T23:25:09;24.70;63.30
54158;DHT22;40065;49.894;10.358;2022-08-03T23:30:11;24.70;63.50
54158;DHT22;40065;49.894;10.358;2022-08-03T23:35:14;24.70;63.50
54158;DHT22;40065;49.894;10.358;2022-08-03T23:40:57;24.80;63.30
54158;DHT22;40065;49.894;10.358;2022-08-03T23:46:00;24.70;63.60
54158;DHT22;40065;49.894;10.358;2022-08-03T23:51:08;24.50;64.30
54158;DHT22;40065;49.894;10.358;2022-08-03T23:56:23;24.30;64.80
